Time;durP1;ratioP1;P1;durP2;ratioP2;P2;SDS_P1;SDS_P2;PMS_P1;PMS_P2;Temp;Humidity;BMP_temperature;BMP_pressure;BME280_temperature;BME280_humidity;BME280_pressure;Samples;Min_cycle;Max_cycle;Signal;HPM_P1;HPM_P2
2022/06/03 00:00:50;;;;;;;5.10;3.83;;;15.90;99.90;17.10;97303.00;;;;5050991;28;20586;-71
2022/06/03 00:03:59;;;;;;;4.47;4.07;;;15.90;99.90;16.60;97321.00;;;;5045868;28;20571;-72
2022/06/03 00:07:09;;;;;;;9.23;3.87;;;15.80;99.90;16.70;97328.00;;;;5043342;28;20573;-73
2022/06/03 00:10:20;;;;;;;5.13;4.57;;;15.80;99.90;16.90;97328.00;;;;5049013;28;20226;-72
2022/06/03 00:13:28;;;;;;;5.47;4.97;;;15.80;99.90;16.60;97321.00;;;;5045296;28;20201;-72
2022/06/03 00:16:30;;;;;;;3.97;3.67;;;15.70;99.90;16.80;97319.00;;;;5046869;28;20228;-72
2022/06/03 00:19:41;;;;;;;4.33;4.03;;;15.60;99.90;17.00;97323.00;;;;5049194;28;20223;-72
2022/06/03 00:22:58;;;;;;;4.17;3.87;;;15.70;99.90;16.90;97328.00;;;;5048990;28;20391;-72
2022/06/03 00:26:19;;;;;;;6.93;4.00;;;15.70;99.90;16.60;97330.00;;;;5050286;28;20201;-72
2022/06/03 00:29:32;;;;;;;4.10;3.70;;;15.60;99.90;16.70;97320.00;;;;5049878;28;20224;-72
2022/06/03 00:33:08;;;;;;;5.97;4.33;;;15.60;99.90;16.80;97324.00;;;;5048293;28;20208;-71
2022/06/03 00:36:20;;;;;;;4.67;4.10;;;15.60;99.90;16.60;97326.00;;;;5020348;28;20223;-72
2022/06/03 00:39:45;;;;;;;5.00;3.77;;;15.50;99.90;16.30;97329.00;;;;5036359;28;20605;-71
2022/06/03 00:43:10;;;;;;;4.47;4.17;;;15.40;99.90;16.30;97330.00;;;;5048605;28;20205;-72
2022/06/03 00:46:12;;;;;;;4.50;4.10;;;15.40;99.90;16.50;97331.00;;;;5041530;28;20711;-70
2022/06/03 00:49:21;;;;;;;6.60;4.70;;;15.40;99.90;16.40;97328.00;;;;5049637;28;20733;-71
2022/06/03 00:52:55;;;;;;;6.00;5.50;;;15.30;99.90;16.60;97324.00;;;;5049812;28;20208;-72
2022/06/03 00:56:15;;;;;;;4.43;4.03;;;15.30;99.90;16.50;97328.00;;;;5049238;28;20215;-72
2022/06/03 00:59:26;;;;;;;4.23;3.90;;;15.30;99.90;16.00;97328.00;;;;5047504;28;20674;-72
2022/06/03 01:02:36;;;;;;;5.73;3.87;;;15.20;99.90;16.20;97337.00;;;;5046285;28;20211;-72
2022/06/03 01:05:36;;;;;;;8.27;4.10;;;15.20;99.90;16.40;97334.00;;;;5041823;28;20234;-72
2022/06/03 01:08:43;;;;;;;4.37;3.97;;;15.10;99.90;16.50;97323.00;;;;5045287;28;20867;-72
2022/06/03 01:12:15;;;;;;;4.67;4.27;;;15.20;99.90;16.50;97320.00;;;;5047839;28;20207;-72
2022/06/03 01:15:28;;;;;;;4.60;4.20;;;15.20;99.90;16.60;97320.00;;;;5043081;28;20205;-72
2022/06/03 01:18:35;;;;;;;5.07;4.67;;;15.20;99.90;16.70;97313.00;;;;5037692;28;20283;-72
2022/06/03 01:21:42;;;;;;;5.17;4.30;;;15.30;99.90;16.60;97305.00;;;;5039299;28;20668;-72
2022/06/03 01:25:11;;;;;;;5.67;4.73;;;15.40;99.90;16.20;97302.00;;;;5049486;28;20208;-71
2022/06/03 01:28:44;;;;;;;6.30;4.13;;;15.30;99.90;16.00;97302.00;;;;5048909;28;20211;-72
2022/06/03 01:32:14;;;;;;;4.13;3.83;;;15.20;99.90;16.20;97304.00;;;;5025826;28;20216;-71
2022/06/03 01:35:29;;;;;;;5.03;4.27;;;15.10;99.90;16.50;97290.00;;;;5049201;28;20699;-72
2022/06/03 01:38:38;;;;;;;4.73;4.30;;;15.20;99.90;16.40;97291.00;;;;5048971;28;20282;-71
2022/06/03 01:42:18;;;;;;;7.43;5.10;;;15.20;99.90;16.40;97292.00;;;;5048445;28;20196;-72
2022/06/03 01:45:47;;;;;;;5.13;4.73;;;15.20;99.90;16.50;97282.00;;;;5047649;28;20220;-72
2022/06/03 01:49:25;;;;;;;5.07;4.33;;;15.20;99.90;16.20;97265.00;;;;5049065;28;20210;-71
2022/06/03 01:52:53;;;;;;;4.87;4.47;;;15.20;99.90;15.80;97265.00;;;;5043061;28;20231;-72
2022/06/03 01:56:42;;;;;;;4.67;4.27;;;15.10;99.90;16.00;97271.00;;;;5049634;28;20208;-72
2022/06/03 02:00:10;;;;;;;5.43;5.00;;;15.00;99.90;16.20;97267.00;;;;5049204;28;20319;-72
2022/06/03 02:03:46;;;;;;;5.43;4.57;;;14.90;99.90;16.30;97258.00;;;;5048330;28;20203;-72
2022/06/03 02:07:20;;;;;;;4.50;4.07;;;15.00;99.90;16.30;97255.00;;;;5048261;28;20211;-72
2022/06/03 02:10:51;;;;;;;4.57;3.87;;;15.00;99.90;16.30;97254.00;;;;5049286;28;20228;-72
2022/06/03 02:14:29;;;;;;;4.50;4.10;;;15.00;99.90;16.30;97245.00;;;;5050159;28;20222;-71
2022/06/03 02:18:07;;;;;;;4.10;3.70;;;15.00;99.90;16.10;97238.00;;;;5048585;28;20223;-72
2022/06/03 02:21:27;;;;;;;4.70;4.20;;;14.90;99.90;16.10;97229.00;;;;5049705;28;20596;-71
2022/06/03 02:25:01;;;;;;;5.50;4.00;;;14.90;99.90;16.00;97229.00;;;;5052421;28;20200;-72
2022/06/03 02:28:27;;;;;;;4.33;4.03;;;14.90;99.90;15.70;97231.00;;;;5051873;28;20203;-72
2022/06/03 02:31:36;;;;;;;5.57;3.70;;;14.80;99.90;15.70;97235.00;;;;5053484;28;20196;-71
2022/06/03 02:35:10;;;;;;;5.73;3.93;;;14.70;99.90;15.70;97238.00;;;;5052487;28;20200;-72
2022/06/03 02:38:36;;;;;;;4.63;4.33;;;14.60;99.90;15.70;97236.00;;;;5047845;28;20228;-72
2022/06/03 02:42:02;;;;;;;5.87;5.20;;;14.60;99.90;15.60;97231.00;;;;5051582;28;20203;-72
2022/06/03 02:45:36;;;;;;;7.33;4.53;;;14.50;99.90;15.50;97221.00;;;;5050106;28;20212;-72
2022/06/03 02:49:20;;;;;;;4.40;4.00;;;14.50;99.90;15.40;97238.00;;;;5051017;28;20200;-72
2022/06/03 02:52:50;;;;;;;4.37;3.97;;;14.40;99.90;15.30;97245.00;;;;5051434;28;20205;-71
2022/06/03 02:56:14;;;;;;;6.07;4.63;;;14.30;99.90;15.40;97237.00;;;;5051105;28;20205;-72
2022/06/03 02:59:35;;;;;;;4.67;3.67;;;14.30;99.90;15.40;97243.00;;;;5051825;28;20229;-72
2022/06/03 03:02:58;;;;;;;5.33;4.90;;;14.30;99.90;15.60;97241.00;;;;5051153;28;20204;-72
2022/06/03 03:06:22;;;;;;;5.00;4.60;;;14.30;99.90;15.70;97265.00;;;;5051981;28;20266;-71
2022/06/03 03:09:44;;;;;;;5.10;4.70;;;14.30;99.90;15.60;97263.00;;;;5051052;28;20220;-72
2022/06/03 03:13:04;;;;;;;5.77;4.20;;;14.40;99.90;15.50;97264.00;;;;5050188;28;20205;-71
2022/06/03 03:16:27;;;;;;;3.90;3.60;;;14.40;99.90;15.40;97265.00;;;;5051593;28;20216;-72
2022/06/03 03:20:06;;;;;;;4.87;4.23;;;14.30;99.90;15.30;97273.00;;;;5045835;28;20232;-71
2022/06/03 03:23:43;;;;;;;4.97;4.47;;;14.30;99.90;15.60;97269.00;;;;5051003;28;20205;-72
2022/06/03 03:26:46;;;;;;;7.13;4.97;;;14.30;99.90;15.50;97273.00;;;;5050480;28;20204;-71
2022/06/03 03:30:02;;;;;;;4.87;4.37;;;14.30;99.90;15.30;97270.00;;;;5050207;28;20228;-72
2022/06/03 03:33:21;;;;;;;8.20;4.27;;;14.30;99.90;15.30;97275.00;;;;5050202;28;20207;-72
2022/06/03 03:36:40;;;;;;;6.20;4.53;;;14.20;99.90;15.40;97270.00;;;;5050251;28;20208;-71
2022/06/03 03:40:25;;;;;;;7.50;4.57;;;14.20;99.90;15.40;97281.00;;;;5050778;28;20251;-72
2022/06/03 03:44:00;;;;;;;4.83;4.37;;;14.20;99.90;15.40;97284.00;;;;5049793;28;20196;-72
2022/06/03 03:47:46;;;;;;;5.13;4.73;;;14.30;99.90;15.30;97276.00;;;;5047433;28;20208;-72
2022/06/03 03:51:14;;;;;;;5.57;4.40;;;14.20;99.90;15.40;97262.00;;;;5049247;28;20232;-72
2022/06/03 03:54:49;;;;;;;4.10;3.77;;;14.20;99.90;15.60;97273.00;;;;5042056;28;20219;-72
2022/06/03 03:58:08;;;;;;;4.33;4.03;;;14.20;99.90;15.40;97282.00;;;;5050663;28;20239;-70
2022/06/03 04:01:54;;;;;;;6.43;5.93;;;14.20;99.90;15.10;97287.00;;;;5050596;28;20192;-72
2022/06/03 04:05:30;;;;;;;5.27;4.13;;;14.10;99.90;15.40;97287.00;;;;5048229;28;20209;-72
2022/06/03 04:09:21;;;;;;;9.13;4.73;;;14.10;99.90;15.40;97290.00;;;;5048881;28;20215;-72
2022/06/03 04:13:06;;;;;;;4.57;3.83;;;14.20;99.90;15.40;97290.00;;;;5040883;28;20201;-72
2022/06/03 04:16:37;;;;;;;4.53;4.13;;;14.20;99.90;15.30;97297.00;;;;5036669;28;20197;-71
2022/06/03 04:20:01;;;;;;;7.00;4.60;;;14.20;99.90;15.40;97298.00;;;;5044998;28;20231;-72
2022/06/03 04:23:36;;;;;;;4.67;4.27;;;14.20;99.90;15.40;97301.00;;;;5046837;28;20197;-72
2022/06/03 04:27:23;;;;;;;4.93;4.50;;;14.30;99.90;15.50;97307.00;;;;5014593;28;20564;-72
2022/06/03 04:31:02;;;;;;;6.13;4.73;;;14.30;99.90;15.60;97299.00;;;;5050368;28;20235;-72
2022/06/03 04:34:32;;;;;;;5.57;4.63;;;14.40;99.90;15.80;97301.00;;;;5045465;28;20208;-72
2022/06/03 04:38:33;;;;;;;5.33;4.07;;;14.50;99.90;15.70;97300.00;;;;5045590;28;20584;-72
2022/06/03 04:42:25;;;;;;;4.77;4.37;;;14.60;99.90;16.10;97300.00;;;;5068818;22;20245;-71
2022/06/03 04:46:19;;;;;;;5.23;4.77;;;14.60;99.90;16.00;97287.00;;;;5021063;28;20212;-71
2022/06/03 04:50:13;;;;;;;4.87;4.47;;;14.70;99.90;15.90;97290.00;;;;5045306;28;20231;-70
2022/06/03 04:54:19;;;;;;;5.60;5.10;;;14.80;99.90;15.80;97288.00;;;;5027471;28;20584;-71
2022/06/03 04:58:15;;;;;;;8.20;4.90;;;14.80;99.90;16.40;97286.00;;;;5008706;28;20212;-71
2022/06/03 05:02:01;;;;;;;6.00;5.57;;;15.00;99.90;16.50;97296.00;;;;5028761;28;20225;-71
2022/06/03 05:05:36;;;;;;;7.53;5.00;;;15.10;99.90;16.70;97298.00;;;;5028961;28;20225;-71
2022/06/03 05:09:40;;;;;;;6.53;4.53;;;15.30;99.90;16.80;97303.00;;;;5026502;28;20695;-71
2022/06/03 05:13:42;;;;;;;5.20;4.70;;;15.40;99.90;16.70;97299.00;;;;4958296;28;20564;-72
2022/06/03 05:17:29;;;;;;;8.30;5.00;;;15.50;99.90;16.60;97289.00;;;;5001967;28;20216;-72
2022/06/03 05:20:46;;;;;;;8.33;6.40;;;15.50;99.90;17.10;97296.00;;;;5026408;28;20237;-72
2022/06/03 05:24:39;;;;;;;7.67;5.43;;;15.70;99.90;17.40;97295.00;;;;5023125;28;20197;-71
2022/06/03 05:28:14;;;;;;;7.67;6.87;;;15.80;99.90;17.80;97297.00;;;;5015397;28;20213;-71
2022/06/03 05:31:57;;;;;;;7.87;7.13;;;16.10;99.90;18.00;97291.00;;;;5022723;28;20228;-71
2022/06/03 05:35:40;;;;;;;10.40;8.60;;;16.30;99.90;18.30;97279.00;;;;5012821;28;20205;-71
2022/06/03 05:38:53;;;;;;;14.90;9.33;;;16.60;99.90;18.40;97293.00;;;;5027266;28;20277;-71
2022/06/03 05:42:28;;;;;;;10.07;9.07;;;16.80;99.90;18.60;97312.00;;;;5028594;28;20258;-72
2022/06/03 05:46:07;;;;;;;10.40;9.27;;;16.90;99.90;18.70;97309.00;;;;5026592;28;20202;-72
2022/06/03 05:49:20;;;;;;;10.20;8.77;;;17.10;99.90;19.10;97298.00;;;;5028135;28;20300;-71
2022/06/03 05:52:33;;;;;;;10.80;9.07;;;17.30;99.90;19.40;97294.00;;;;5019187;28;20229;-71
2022/06/03 05:55:35;;;;;;;9.43;8.30;;;17.50;99.90;19.00;97302.00;;;;5029248;28;20668;-71
2022/06/03 05:58:42;;;;;;;11.40;8.70;;;17.60;99.90;19.40;97296.00;;;;5029053;28;20221;-72
2022/06/03 06:01:48;;;;;;;10.60;7.63;;;17.70;99.90;19.50;97301.00;;;;5019622;28;20217;-71
2022/06/03 06:04:58;;;;;;;9.47;8.07;;;17.90;99.90;19.70;97294.00;;;;5028404;28;20207;-72
2022/06/03 06:07:58;;;;;;;8.80;7.73;;;18.00;99.90;19.30;97296.00;;;;5029385;28;20208;-71
2022/06/03 06:10:59;;;;;;;9.90;6.90;;;18.00;99.90;19.70;97294.00;;;;5030164;28;20213;-71
2022/06/03 06:14:15;;;;;;;12.27;9.43;;;18.10;99.90;20.10;97291.00;;;;5026868;28;20677;-71
2022/06/03 06:17:37;;;;;;;11.67;7.57;;;18.30;99.90;20.40;97293.00;;;;5023995;28;20193;-71
2022/06/03 06:20:46;;;;;;;9.67;7.63;;;18.50;99.90;20.60;97282.00;;;;5028933;28;20228;-71
2022/06/03 06:23:46;;;;;;;7.37;6.63;;;18.70;99.90;20.70;97292.00;;;;5021456;28;20201;-71
2022/06/03 06:27:15;;;;;;;8.93;7.30;;;18.90;99.90;21.10;97286.00;;;;5027685;28;20208;-71
2022/06/03 06:30:21;;;;;;;9.03;8.07;;;19.00;99.90;21.30;97295.00;;;;5020230;28;20227;-71
2022/06/03 06:33:27;;;;;;;9.10;7.67;;;19.30;99.90;21.50;97302.00;;;;5024212;28;20201;-71
2022/06/03 06:36:50;;;;;;;8.57;7.67;;;19.50;99.90;21.70;97298.00;;;;5025755;28;20204;-71
2022/06/03 06:39:56;;;;;;;10.13;7.33;;;19.70;99.90;21.90;97302.00;;;;5024457;28;20691;-71
2022/06/03 06:43:02;;;;;;;6.60;6.00;;;19.90;99.90;22.10;97300.00;;;;5026274;28;20255;-71
2022/06/03 06:45:59;;;;;;;7.80;6.70;;;20.10;99.90;22.30;97305.00;;;;5022641;28;20197;-71
2022/06/03 06:49:18;;;;;;;6.90;6.30;;;20.30;99.90;22.60;97295.00;;;;5024049;28;20209;-71
2022/06/03 06:52:34;;;;;;;7.67;6.97;;;20.50;99.90;22.80;97297.00;;;;5027376;28;20794;-71
2022/06/03 06:55:37;;;;;;;6.13;5.60;;;20.70;99.90;23.00;97297.00;;;;5022295;28;20681;-72
2022/06/03 06:58:44;;;;;;;6.20;5.63;;;20.90;99.90;23.20;97294.00;;;;5028029;28;20229;-71
2022/06/03 07:01:37;;;;;;;7.20;5.60;;;21.10;99.90;23.10;97300.00;;;;5030670;28;20217;-72
2022/06/03 07:04:41;;;;;;;6.73;6.07;;;21.30;99.90;23.10;97279.00;;;;5031200;28;20587;-71
2022/06/03 07:07:37;;;;;;;6.07;5.50;;;21.30;99.90;23.20;97291.00;;;;5029669;28;20241;-70
2022/06/03 07:10:31;;;;;;;8.07;5.03;;;21.40;99.90;23.20;97294.00;;;;5030221;28;20233;-71
2022/06/03 07:13:26;;;;;;;6.63;5.30;;;21.40;99.90;23.30;97291.00;;;;5028376;28;20213;-71
2022/06/03 07:19:50;;;;;;;6.73;5.13;;;21.50;99.90;23.80;97301.00;;;;5026070;28;20229;-72
2022/06/03 07:22:47;;;;;;;5.97;5.03;;;21.70;99.90;23.80;97297.00;;;;5029156;28;20677;-72
2022/06/03 07:25:46;;;;;;;6.37;4.70;;;21.80;99.90;23.90;97296.00;;;;5029953;28;20197;-72
2022/06/03 07:28:45;;;;;;;5.07;4.63;;;21.90;99.90;23.30;97298.00;;;;5027914;28;20237;-72
2022/06/03 07:31:40;;;;;;;6.60;4.90;;;21.80;99.90;23.60;97282.00;;;;5021701;28;20242;-71
2022/06/03 07:34:33;;;;;;;5.13;4.73;;;21.80;99.90;23.90;97291.00;;;;5029165;28;20208;-72
2022/06/03 07:37:27;;;;;;;4.53;4.13;;;21.90;99.90;23.70;97284.00;;;;5026556;28;20224;-72
2022/06/03 07:40:24;;;;;;;5.33;4.67;;;22.00;99.90;24.30;97281.00;;;;5031050;28;20271;-72
2022/06/03 07:43:22;;;;;;;5.97;3.93;;;22.20;99.90;24.10;97281.00;;;;5030717;28;20197;-71
2022/06/03 07:46:17;;;;;;;5.40;4.77;;;22.30;99.90;23.50;97269.00;;;;5029849;28;20212;-72
2022/06/03 07:49:07;;;;;;;4.73;4.23;;;22.40;99.90;24.20;97272.00;;;;5027935;28;20210;-72
2022/06/03 07:52:01;;;;;;;5.27;4.77;;;22.30;99.90;24.50;97276.00;;;;5021308;28;20212;-72
2022/06/03 07:54:56;;;;;;;4.20;3.80;;;22.50;99.90;24.80;97269.00;;;;5027694;28;20193;-72
2022/06/03 07:57:51;;;;;;;3.60;3.30;;;22.70;99.90;25.00;97281.00;;;;5031146;28;20202;-74
2022/06/03 08:00:43;;;;;;;5.20;4.70;;;22.90;99.90;24.80;97268.00;;;;5030101;28;20237;-74
2022/06/03 08:03:37;;;;;;;4.30;3.90;;;23.00;99.90;25.20;97261.00;;;;5030805;28;20205;-73
2022/06/03 08:06:31;;;;;;;5.63;4.30;;;23.10;99.90;24.60;97258.00;;;;5030426;28;20204;-74
2022/06/03 08:12:34;;;;;;;4.77;4.37;;;23.20;99.90;25.30;97254.00;;;;5031370;28;20207;-73
2022/06/03 08:15:29;;;;;;;5.40;4.83;;;23.30;99.90;25.50;97262.00;;;;5029652;28;20723;-74
2022/06/03 08:18:21;;;;;;;4.37;4.03;;;23.50;99.90;25.70;97273.00;;;;5030134;28;20197;-73
2022/06/03 08:21:14;;;;;;;3.63;3.33;;;23.70;99.90;25.90;97271.00;;;;5028263;28;20222;-73
2022/06/03 08:24:06;;;;;;;4.20;3.50;;;23.90;99.90;26.30;97279.00;;;;5031437;28;20200;-72
2022/06/03 08:26:59;;;;;;;4.17;3.17;;;24.00;99.90;26.00;97267.00;;;;5025927;28;20209;-72
2022/06/03 08:29:52;;;;;;;3.23;2.93;;;24.20;99.90;25.40;97275.00;;;;5030951;28;20218;-72
2022/06/03 08:32:45;;;;;;;3.27;2.97;;;24.00;99.90;24.60;97261.00;;;;5023916;28;20199;-72
2022/06/03 08:35:41;;;;;;;4.83;3.80;;;23.80;99.90;25.00;97275.00;;;;5029058;28;20197;-72
2022/06/03 08:38:40;;;;;;;3.20;2.83;;;23.70;99.90;24.90;97269.00;;;;5028548;28;20661;-73
2022/06/03 08:41:49;;;;;;;6.03;3.13;;;23.70;99.90;26.20;97287.00;;;;5019346;28;20244;-73
2022/06/03 08:44:54;;;;;;;6.43;3.63;;;23.80;99.90;26.00;97267.00;;;;5025236;28;20206;-74
2022/06/03 08:47:49;;;;;;;4.10;3.70;;;24.10;99.90;26.70;97266.00;;;;5029309;28;20198;-70
2022/06/03 08:50:44;;;;;;;4.37;3.63;;;24.40;99.90;26.10;97264.00;;;;5021699;28;20221;-71
2022/06/03 08:53:44;;;;;;;4.43;3.50;;;24.60;99.90;27.00;97263.00;;;;5025387;28;20213;-69
2022/06/03 08:56:37;;;;;;;4.47;3.63;;;24.80;99.90;26.90;97266.00;;;;5029550;28;20203;-70
2022/06/03 08:59:33;;;;;;;3.87;2.97;;;25.00;99.90;27.80;97271.00;;;;5020176;28;20223;-70
2022/06/03 09:02:29;;;;;;;3.73;2.73;;;25.20;99.90;27.90;97263.00;;;;5019910;28;20201;-70
2022/06/03 09:05:26;;;;;;;4.93;4.43;;;25.50;99.90;27.20;97256.00;;;;5029500;28;20203;-70
2022/06/03 09:08:26;;;;;;;4.57;4.17;;;25.60;99.90;27.00;97246.00;;;;5026766;28;20210;-70
2022/06/03 09:11:22;;;;;;;4.30;4.00;;;25.70;99.90;27.30;97257.00;;;;5030278;28;20227;-70
2022/06/03 09:14:19;;;;;;;5.33;4.33;;;25.70;99.90;26.30;97256.00;;;;5017096;28;20209;-70
2022/06/03 09:17:25;;;;;;;3.90;3.50;;;25.40;99.90;25.10;97282.00;;;;5026564;28;20198;-69
2022/06/03 09:20:18;;;;;;;3.73;3.10;;;25.00;99.90;26.30;97257.00;;;;5022331;28;20226;-69
2022/06/03 09:23:11;;;;;;;4.00;3.50;;;24.70;99.90;27.70;97255.00;;;;5025837;28;20210;-70
2022/06/03 09:26:02;;;;;;;4.47;2.93;;;25.00;99.90;28.40;97253.00;;;;5024174;28;20198;-70
2022/06/03 09:28:52;;;;;;;4.13;3.60;;;25.50;99.90;28.70;97253.00;;;;5026665;28;20212;-70
2022/06/03 09:31:46;;;;;;;3.87;3.57;;;25.90;99.90;29.10;97249.00;;;;5030123;28;20197;-70
2022/06/03 09:34:42;;;;;;;5.50;3.70;;;26.30;99.90;28.50;97246.00;;;;5029052;28;20202;-66
2022/06/03 09:37:35;;;;;;;3.10;2.80;;;26.60;99.90;29.40;97249.00;;;;5024838;28;20215;-66
2022/06/03 09:40:28;;;;;;;3.13;2.83;;;26.80;99.90;29.30;97241.00;;;;5026647;28;20242;-66
2022/06/03 09:43:22;;;;;;;5.17;3.20;;;27.20;99.90;29.80;97245.00;;;;5026350;28;20939;-67
2022/06/03 09:46:12;;;;;;;3.27;2.73;;;27.40;99.90;30.20;97238.00;;;;5028159;28;20206;-67
2022/06/03 09:49:05;;;;;;;2.97;2.67;;;27.60;99.90;30.30;97230.00;;;;5012365;28;20199;-67
2022/06/03 09:51:59;;;;;;;3.40;3.20;;;27.80;99.80;29.50;97231.00;;;;5024683;28;20201;-68
2022/06/03 09:54:49;;;;;;;3.50;2.60;;;27.90;96.60;29.80;97246.00;;;;5029044;28;20199;-69
2022/06/03 09:57:42;;;;;;;3.23;2.77;;;27.90;96.90;30.20;97230.00;;;;5022954;28;20209;-69
2022/06/03 10:00:42;;;;;;;5.13;3.00;;;28.00;95.60;30.10;97226.00;;;;5026351;28;20251;-69
2022/06/03 10:03:32;;;;;;;3.37;2.97;;;28.00;97.20;30.40;97236.00;;;;5025755;28;20206;-69
2022/06/03 10:12:53;;;;;;;3.33;3.03;;;28.30;95.10;29.80;97239.00;;;;5026064;28;20204;-70
2022/06/03 10:15:53;;;;;;;4.87;2.70;;;28.30;94.70;29.40;97267.00;;;;5025048;28;20202;-70
2022/06/03 10:18:46;;;;;;;3.87;3.57;;;28.10;94.10;29.60;97229.00;;;;5022612;28;20214;-70
2022/06/03 10:21:35;;;;;;;3.40;2.90;;;27.90;94.20;29.90;97218.00;;;;5026963;28;20232;-69
2022/06/03 10:24:32;;;;;;;3.73;2.63;;;27.90;95.30;30.10;97219.00;;;;5026950;28;20210;-69
2022/06/03 10:27:21;;;;;;;9.10;3.50;;;28.00;94.70;29.60;97247.00;;;;5026041;28;20198;-70
2022/06/03 10:30:13;;;;;;;3.27;2.80;;;28.00;93.70;29.60;97253.00;;;;5024794;28;20237;-70
2022/06/03 10:33:05;;;;;;;5.23;3.33;;;27.80;94.40;29.10;97243.00;;;;5025239;28;20205;-70
2022/06/03 10:35:58;;;;;;;4.87;2.90;;;27.60;94.30;28.30;97186.00;;;;5027516;28;20240;-70
2022/06/03 10:38:51;;;;;;;3.30;3.00;;;27.40;93.20;28.40;97236.00;;;;5024727;28;20286;-70
2022/06/03 10:41:45;;;;;;;3.33;3.03;;;27.20;94.40;27.90;97220.00;;;;5033015;22;20252;-68
2022/06/03 10:44:36;;;;;;;3.17;2.97;;;27.10;94.30;28.70;97171.00;;;;5019874;28;20719;-68
2022/06/03 10:47:35;;;;;;;3.27;3.07;;;26.90;95.50;30.30;97170.00;;;;5012663;28;20212;-68
2022/06/03 10:50:31;;;;;;;4.17;3.30;;;27.40;96.00;31.20;97168.00;;;;5007238;28;20232;-68
2022/06/03 11:02:51;;;;;;;3.30;3.00;;;27.70;92.50;28.00;97196.00;;;;4982730;28;20209;-67
2022/06/03 11:05:41;;;;;;;3.17;2.93;;;27.20;93.20;29.30;97175.00;;;;4991305;28;20692;-68
2022/06/03 11:08:49;;;;;;;5.20;3.30;;;27.20;94.80;29.10;97195.00;;;;4990837;28;20206;-69
2022/06/03 11:11:43;;;;;;;4.53;3.23;;;27.20;94.60;28.90;97204.00;;;;4995812;28;20227;-69
2022/06/03 11:14:39;;;;;;;7.03;3.47;;;27.10;94.10;28.10;97190.00;;;;4989299;28;20211;-68
2022/06/03 11:17:37;;;;;;;3.70;3.00;;;26.90;94.20;28.80;97183.00;;;;4996605;28;20209;-68
2022/06/03 11:20:35;;;;;;;3.27;3.07;;;26.80;95.80;30.00;97147.00;;;;4997552;28;20220;-68
2022/06/03 11:23:25;;;;;;;3.50;3.20;;;27.10;96.40;30.30;97169.00;;;;4997488;28;20204;-67
2022/06/03 11:26:14;;;;;;;2.90;2.70;;;27.40;96.30;30.40;97180.00;;;;4997322;28;20683;-68
2022/06/03 11:29:12;;;;;;;3.27;2.97;;;27.70;96.20;29.70;97105.00;;;;4992470;28;20200;-68
2022/06/03 11:32:03;;;;;;;3.50;3.20;;;28.10;94.20;27.80;97148.00;;;;4997650;28;20242;-68
2022/06/03 11:35:01;;;;;;;2.80;2.60;;;27.70;92.40;29.40;97121.00;;;;4992609;28;20192;-68
2022/06/03 11:37:54;;;;;;;4.17;2.97;;;27.60;93.50;30.10;97147.00;;;;4993077;28;20208;-68
2022/06/03 11:40:54;;;;;;;3.13;2.93;;;27.70;95.20;28.30;97161.00;;;;4998361;28;20237;-67
2022/06/03 11:43:51;;;;;;;4.77;2.80;;;27.70;93.00;27.20;97148.00;;;;4991019;28;20201;-67
2022/06/03 11:46:54;;;;;;;3.73;3.43;;;27.20;93.30;28.60;97110.00;;;;4988059;28;20680;-68
2022/06/03 11:49:45;;;;;;;8.30;3.33;;;27.10;94.20;28.80;97142.00;;;;4991043;28;20663;-68
2022/06/03 11:52:33;;;;;;;3.40;3.13;;;27.10;95.00;28.70;97149.00;;;;4989922;28;20583;-69
2022/06/03 11:55:26;;;;;;;3.90;3.60;;;27.00;94.50;28.30;97142.00;;;;4982840;28;20213;-67
2022/06/03 11:58:22;;;;;;;6.40;3.10;;;26.90;95.00;27.10;97129.00;;;;4983799;28;20291;-66
2022/06/03 12:01:15;;;;;;;3.63;3.33;;;26.60;94.30;28.10;97137.00;;;;4981647;28;20608;-67
2022/06/03 12:04:20;;;;;;;3.63;3.33;;;26.50;95.60;28.80;97145.00;;;;4983370;28;20225;-67
2022/06/03 12:07:24;;;;;;;5.57;3.33;;;26.60;96.00;29.10;97142.00;;;;4990721;28;20712;-67
2022/06/03 12:10:23;;;;;;;3.80;3.27;;;26.80;96.60;29.10;97145.00;;;;4992135;28;20225;-68
2022/06/03 12:13:17;;;;;;;5.07;3.50;;;26.90;96.70;28.90;97148.00;;;;4995793;28;20214;-67
2022/06/03 12:16:11;;;;;;;3.63;3.33;;;27.00;96.40;28.40;97148.00;;;;5000847;28;20205;-68
2022/06/03 12:19:04;;;;;;;4.47;3.43;;;26.90;95.90;28.30;97141.00;;;;4993101;28;20222;-68
2022/06/03 12:21:57;;;;;;;4.00;3.60;;;26.80;96.40;28.70;97131.00;;;;4988490;28;20627;-68
2022/06/03 12:24:50;;;;;;;5.00;4.60;;;26.80;97.20;29.10;97119.00;;;;4985433;28;20219;-68
2022/06/03 12:27:41;;;;;;;3.53;3.23;;;26.90;97.50;29.10;97136.00;;;;4984534;28;20195;-69
2022/06/03 12:30:42;;;;;;;4.20;3.90;;;27.00;97.20;29.10;97133.00;;;;4985895;28;20322;-68
2022/06/03 12:33:38;;;;;;;3.97;3.67;;;27.10;97.20;29.00;97136.00;;;;4984197;28;20205;-69
2022/06/03 12:36:39;;;;;;;4.20;3.80;;;27.10;97.40;29.20;97122.00;;;;4986429;28;20242;-69
2022/06/03 12:39:31;;;;;;;4.03;3.53;;;27.20;98.00;29.10;97135.00;;;;4985294;28;20258;-69
2022/06/03 12:42:41;;;;;;;7.90;3.80;;;27.20;97.80;28.90;97140.00;;;;4986290;28;20675;-69
2022/06/03 12:45:35;;;;;;;4.33;3.87;;;27.20;97.40;28.90;97133.00;;;;4986941;28;20207;-69
2022/06/03 12:48:47;;;;;;;4.60;4.20;;;27.10;97.70;29.40;97147.00;;;;4985912;28;20210;-68
2022/06/03 12:51:59;;;;;;;5.00;4.43;;;27.20;97.70;28.50;97148.00;;;;4985200;28;20215;-69
2022/06/03 12:54:54;;;;;;;5.07;4.30;;;27.20;97.40;28.50;97149.00;;;;4986805;28;20199;-69
2022/06/03 12:57:48;;;;;;;4.23;3.67;;;27.10;98.50;28.40;97157.00;;;;4984489;28;20192;-68
2022/06/03 13:00:51;;;;;;;4.30;3.90;;;26.90;98.80;27.80;97153.00;;;;4985851;28;20219;-68
2022/06/03 13:03:44;;;;;;;4.57;4.17;;;26.70;98.60;27.00;97151.00;;;;4984940;28;20688;-67
2022/06/03 13:07:36;;;;;;;4.77;3.93;;;26.40;98.70;26.70;97152.00;;;;4986579;28;20208;-68
2022/06/03 13:10:54;;;;;;;4.97;4.33;;;25.90;99.10;26.90;97136.00;;;;4986052;28;20691;-69
2022/06/03 13:14:17;;;;;;;5.07;4.67;;;25.60;99.70;26.90;97133.00;;;;4986002;28;20287;-68
2022/06/03 13:17:07;;;;;;;4.83;4.30;;;25.40;99.90;25.80;97127.00;;;;4987191;28;20197;-66
2022/06/03 13:20:01;;;;;;;5.37;4.10;;;25.20;99.90;26.20;97125.00;;;;4986763;28;20201;-66
2022/06/03 13:22:57;;;;;;;5.37;4.80;;;25.10;99.90;26.10;97103.00;;;;4985538;28;20255;-68
2022/06/03 13:25:47;;;;;;;5.30;4.90;;;24.90;99.90;26.40;97090.00;;;;4985477;28;20200;-68
2022/06/03 13:28:42;;;;;;;5.97;4.43;;;24.90;99.90;26.90;97096.00;;;;4986914;28;20203;-67
2022/06/03 13:32:02;;;;;;;5.00;4.60;;;25.10;99.90;26.60;97091.00;;;;4986112;28;20233;-67
2022/06/03 13:35:07;;;;;;;5.57;5.07;;;25.20;99.90;27.60;97095.00;;;;4986822;28;20204;-67
2022/06/03 13:38:25;;;;;;;4.93;4.50;;;25.50;99.90;27.90;97098.00;;;;4983759;28;20226;-68
2022/06/03 13:44:41;;;;;;;5.17;4.33;;;26.00;99.90;28.70;97081.00;;;;4980013;28;20222;-67
2022/06/03 13:47:34;;;;;;;7.03;4.13;;;26.30;99.90;29.50;97047.00;;;;4983859;28;20238;-68
2022/06/03 13:50:35;;;;;;;4.10;3.70;;;26.70;99.90;31.20;97057.00;;;;4987292;28;20222;-68
2022/06/03 13:53:30;;;;;;;4.13;3.83;;;27.50;99.90;31.10;97079.00;;;;4988903;28;20211;-70
2022/06/03 13:56:23;;;;;;;5.30;4.80;;;28.00;99.90;31.00;97071.00;;;;4985472;28;20213;-69
2022/06/03 13:59:17;;;;;;;6.80;4.27;;;28.50;98.60;30.40;97074.00;;;;4988594;28;20210;-69
2022/06/03 14:02:15;;;;;;;3.87;3.67;;;28.70;97.60;30.70;97076.00;;;;4991013;28;20297;-68
2022/06/03 14:05:09;;;;;;;4.93;4.07;;;28.60;97.00;31.30;97060.00;;;;4987141;28;20205;-69
2022/06/03 14:08:05;;;;;;;4.53;4.03;;;28.80;97.00;31.30;97088.00;;;;4992792;28;20566;-70
2022/06/03 14:11:10;;;;;;;5.05;4.55;;;28.90;97.20;29.40;97085.00;;;;4997030;28;20228;-68
2022/06/03 14:14:09;;;;;;;4.07;3.70;;;28.70;95.40;28.00;97074.00;;;;4995736;28;20218;-69
2022/06/03 14:17:03;;;;;;;4.07;3.60;;;27.80;96.20;29.10;97059.00;;;;4989203;28;20236;-68
2022/06/03 14:19:58;;;;;;;3.90;3.60;;;27.60;97.80;29.70;97049.00;;;;4992506;28;20216;-69
2022/06/03 14:23:02;;;;;;;4.80;3.73;;;27.60;98.30;29.60;97047.00;;;;4994051;28;20898;-68
2022/06/03 14:25:57;;;;;;;5.57;3.83;;;27.60;97.80;30.00;97052.00;;;;4991547;28;20206;-69
2022/06/03 14:28:54;;;;;;;4.70;3.67;;;27.70;98.70;30.00;97046.00;;;;4992508;28;20206;-69